Time;durP1;ratioP1;P1;durP2;ratioP2;P2;SDS_P1;SDS_P2;PMS_P1;PMS_P2;Temp;Humidity;BMP_temperature;BMP_pressure;BME280_temperature;BME280_humidity;BME280_pressure;Samples;Min_cycle;Max_cycle;Signal;HPM_P1;HPM_P2
2022/09/14 00:01:44;;;;;;;3.78;0.77;;;;;;;17.37;87.08;100013.34;5044652;28;20037;-74
2022/09/14 00:04:13;;;;;;;2.83;0.43;;;;;;;17.34;86.59;100013.41;5053798;28;20056;-73
2022/09/14 00:06:39;;;;;;;3.58;0.40;;;;;;;17.22;87.31;100009.31;5050820;28;20035;-73
2022/09/14 00:09:06;;;;;;;1.08;0.50;;;;;;;17.24;87.62;100006.19;5051493;28;20557;-73
2022/09/14 00:11:34;;;;;;;1.13;0.50;;;;;;;17.19;87.67;100001.97;5014114;28;20034;-73
2022/09/14 00:14:01;;;;;;;0.60;0.40;;;;;;;17.15;88.12;100007.47;5049904;28;20233;-71
2022/09/14 00:16:35;;;;;;;1.60;0.63;;;;;;;17.17;88.25;100004.34;5050843;28;20025;-74
2022/09/14 00:19:22;;;;;;;0.93;0.45;;;;;;;17.20;88.67;99998.09;5051598;28;20035;-73
2022/09/14 00:21:56;;;;;;;0.40;0.40;;;;;;;17.17;88.57;99990.72;5035923;28;20537;-74
2022/09/14 00:24:23;;;;;;;0.73;0.60;;;;;;;17.22;88.59;99987.56;5032588;28;20048;-72
2022/09/14 00:26:49;;;;;;;0.38;0.38;;;;;;;17.20;88.46;99983.69;5050319;28;20115;-73
2022/09/14 00:29:15;;;;;;;0.85;0.40;;;;;;;17.11;88.60;99981.53;5031113;28;20028;-74
2022/09/14 00:31:40;;;;;;;2.03;1.27;;;;;;;17.11;89.20;99976.09;5032812;28;20101;-73
2022/09/14 00:34:10;;;;;;;1.70;0.82;;;;;;;17.03;89.42;99969.22;5030324;28;20040;-74
2022/09/14 00:36:41;;;;;;;0.55;0.55;;;;;;;17.02;89.64;99973.91;5034901;28;20037;-74
2022/09/14 00:39:08;;;;;;;0.40;0.40;;;;;;;16.99;90.15;99960.34;5028496;28;20393;-74
2022/09/14 00:41:35;;;;;;;0.45;0.45;;;;;;;16.99;90.05;99960.34;5046626;28;20500;-73
2022/09/14 00:44:25;;;;;;;1.20;0.52;;;;;;;17.07;89.52;99957.06;5048059;28;20037;-73
2022/09/14 00:46:54;;;;;;;1.75;0.80;;;;;;;16.99;89.81;99952.19;5047776;28;20111;-71
2022/09/14 00:49:31;;;;;;;0.65;0.50;;;;;;;16.91;89.80;99942.63;5050625;28;20385;-70
2022/09/14 00:52:20;;;;;;;1.05;0.40;;;;;;;16.87;89.52;99939.97;5044730;28;20701;-70
2022/09/14 00:54:49;;;;;;;1.40;0.60;;;;;;;16.86;89.71;99941.13;5045077;28;20039;-71
2022/09/14 00:57:17;;;;;;;0.85;0.55;;;;;;;16.88;90.30;99938.75;5049772;28;20033;-72
2022/09/14 00:59:44;;;;;;;0.77;0.50;;;;;;;16.85;90.07;99933.38;5049405;28;20033;-70
2022/09/14 01:02:13;;;;;;;0.63;0.63;;;;;;;16.79;90.20;99922.22;5036749;28;20034;-70
2022/09/14 01:04:40;;;;;;;4.00;0.70;;;;;;;16.81;90.40;99932.69;5039596;28;20047;-70
2022/09/14 01:07:21;;;;;;;1.17;0.52;;;;;;;16.83;90.15;99922.94;5037416;28;20048;-70
2022/09/14 01:10:22;;;;;;;5.57;1.13;;;;;;;16.74;90.08;99924.66;5048380;28;20032;-69
2022/09/14 01:13:12;;;;;;;0.57;0.57;;;;;;;16.75;90.56;99928.88;5042164;28;20029;-71
2022/09/14 01:15:47;;;;;;;0.93;0.47;;;;;;;16.81;90.18;99930.72;5048146;28;20589;-70
2022/09/14 01:18:27;;;;;;;1.65;0.70;;;;;;;16.90;89.78;99935.63;5032011;28;20036;-71
2022/09/14 01:21:09;;;;;;;3.40;0.38;;;;;;;16.92;90.04;99933.25;5045807;28;20024;-73
2022/09/14 01:23:46;;;;;;;;;;;;;;;16.86;90.29;99945.81;5047884;28;20044;-71
2022/09/14 01:26:23;;;;;;;0.50;0.40;;;;;;;16.83;90.41;99936.53;5046866;28;19913;-70
2022/09/14 01:29:10;;;;;;;1.70;0.40;;;;;;;16.85;90.95;99942.31;5047343;28;20397;-70
2022/09/14 01:31:52;;;;;;;2.60;0.45;;;;;;;16.86;90.52;99943.84;5049096;28;20041;-70
2022/09/14 01:34:25;;;;;;;3.40;0.93;;;;;;;16.80;90.57;99944.75;5046084;28;20122;-70
2022/09/14 01:36:56;;;;;;;0.50;0.50;;;;;;;16.90;89.96;99936.41;5047755;28;20037;-70
2022/09/14 01:39:22;;;;;;;1.95;0.80;;;;;;;16.80;89.87;99936.59;5051846;28;20032;-71
2022/09/14 01:41:51;;;;;;;1.23;0.45;;;;;;;16.74;90.19;99935.53;5056583;28;20025;-70
2022/09/14 01:44:36;;;;;;;0.93;0.52;;;;;;;16.75;90.01;99939.75;5049400;28;20503;-71
2022/09/14 01:47:12;;;;;;;2.47;0.35;;;;;;;16.70;90.37;99940.25;5051012;28;20095;-70
2022/09/14 01:49:43;;;;;;;3.85;0.50;;;;;;;16.73;90.34;99939.41;5032411;28;20057;-70
2022/09/14 01:52:34;;;;;;;3.42;0.68;;;;;;;16.69;90.02;99944.13;5047820;28;20428;-71
2022/09/14 01:55:06;;;;;;;0.40;0.30;;;;;;;16.57;89.66;99942.03;5039387;28;20506;-70
2022/09/14 01:57:56;;;;;;;2.00;0.50;;;;;;;16.55;89.87;99936.22;5044676;28;20044;-73
2022/09/14 02:00:22;;;;;;;2.78;0.50;;;;;;;16.51;90.04;99932.78;5040234;28;20048;-68
2022/09/14 02:02:59;;;;;;;3.10;0.40;;;;;;;16.50;90.38;99948.31;5048991;28;20107;-68
2022/09/14 02:05:39;;;;;;;0.40;0.25;;;;;;;16.45;89.61;99948.00;5041207;28;20402;-68
2022/09/14 02:08:07;;;;;;;1.30;0.57;;;;;;;16.38;90.19;99946.13;5050290;28;20041;-68
2022/09/14 02:10:34;;;;;;;3.05;0.63;;;;;;;16.26;90.18;99947.47;5036180;28;20045;-68
2022/09/14 02:12:59;;;;;;;1.38;0.50;;;;;;;16.23;90.71;99945.59;5052857;28;20025;-70
2022/09/14 02:15:25;;;;;;;2.25;0.70;;;;;;;16.33;90.39;99946.63;5033694;28;20554;-68
2022/09/14 02:17:52;;;;;;;0.45;0.40;;;;;;;16.32;90.34;99941.59;5052011;28;20037;-68
2022/09/14 02:20:30;;;;;;;0.80;0.50;;;;;;;16.39;89.81;99938.75;5052455;28;20033;-68
2022/09/14 02:22:56;;;;;;;2.30;0.77;;;;;;;16.27;90.04;99937.38;5044931;28;20115;-69
2022/09/14 02:25:21;;;;;;;0.55;0.30;;;;;;;16.16;91.05;99934.81;5056199;28;20119;-68
2022/09/14 02:27:47;;;;;;;1.20;0.65;;;;;;;16.18;91.36;99945.28;5053189;28;20124;-68
2022/09/14 02:30:14;;;;;;;2.03;0.40;;;;;;;16.24;91.42;99944.41;5052711;28;20064;-68
2022/09/14 02:32:52;;;;;;;7.57;0.93;;;;;;;16.28;91.61;99939.69;5040020;28;20128;-70
2022/09/14 02:35:21;;;;;;;0.40;0.40;;;;;;;16.37;91.49;99933.75;5028309;28;20371;-67
2022/09/14 02:38:03;;;;;;;3.08;0.43;;;;;;;16.33;92.21;99926.81;5047730;28;20049;-68
2022/09/14 02:40:40;;;;;;;1.92;0.52;;;;;;;16.32;92.03;99926.03;5042336;28;20451;-68
2022/09/14 02:43:44;;;;;;;1.65;0.50;;;;;;;16.24;92.27;99922.66;5046008;28;20099;-69
2022/09/14 02:46:19;;;;;;;1.50;0.57;;;;;;;16.19;91.92;99930.50;4953949;28;20034;-68
2022/09/14 02:48:57;;;;;;;2.17;0.73;;;;;;;16.13;92.11;99932.13;5025645;28;20037;-69
2022/09/14 02:51:32;;;;;;;0.20;0.20;;;;;;;16.10;91.72;99933.72;5049007;28;20354;-68
2022/09/14 02:54:07;;;;;;;1.38;0.60;;;;;;;16.10;92.23;99928.28;5031407;28;20025;-68
2022/09/14 02:56:34;;;;;;;0.38;0.38;;;;;;;16.08;91.90;99927.19;5052893;28;20059;-70
2022/09/14 02:59:00;;;;;;;0.75;0.55;;;;;;;16.06;91.72;99933.03;5032645;28;20033;-68
2022/09/14 03:01:26;;;;;;;1.63;0.63;;;;;;;16.03;91.59;99922.19;5050082;28;20037;-68
2022/09/14 03:03:52;;;;;;;4.15;0.55;;;;;;;15.93;92.18;99918.44;5031238;28;20401;-69
2022/09/14 03:06:18;;;;;;;0.70;0.40;;;;;;;15.90;92.48;99927.41;5030239;28;20029;-68
2022/09/14 03:08:43;;;;;;;1.10;0.32;;;;;;;15.92;92.23;99922.34;5050929;28;20028;-68
2022/09/14 03:11:09;;;;;;;0.95;0.60;;;;;;;15.92;92.44;99921.56;5052529;28;20436;-71
2022/09/14 03:13:35;;;;;;;2.30;0.63;;;;;;;15.92;92.04;99924.28;5035543;28;20529;-68
2022/09/14 03:16:06;;;;;;;3.22;0.68;;;;;;;15.90;92.26;99921.97;5049876;28;20554;-71
2022/09/14 03:18:33;;;;;;;2.95;0.85;;;;;;;15.82;92.33;99919.75;5033917;28;20474;-72
2022/09/14 03:21:10;;;;;;;2.42;0.57;;;;;;;15.80;92.54;99925.59;5032012;28;20040;-72
2022/09/14 03:23:38;;;;;;;0.70;0.47;;;;;;;15.83;92.44;99913.16;5044514;28;20083;-72
2022/09/14 03:26:13;;;;;;;2.55;1.15;;;;;;;15.92;92.05;99927.78;5039269;28;20035;-71
2022/09/14 03:28:40;;;;;;;1.90;1.05;;;;;;;15.90;92.25;99916.56;5055793;28;20028;-72
2022/09/14 03:31:08;;;;;;;0.40;0.30;;;;;;;15.87;92.78;99908.47;5032414;28;20536;-72
2022/09/14 03:36:12;;;;;;;3.78;0.93;;;;;;;15.92;93.00;99897.13;4994457;28;20045;-67
2022/09/14 03:38:42;;;;;;;1.02;0.70;;;;;;;15.93;92.88;99896.72;4990770;28;20040;-68
2022/09/14 03:41:09;;;;;;;0.80;0.68;;;;;;;15.79;93.21;99896.16;4986560;28;20069;-67
2022/09/14 03:43:34;;;;;;;1.23;0.70;;;;;;;15.75;93.18;99895.44;4998898;28;20042;-65
2022/09/14 03:46:07;;;;;;;0.57;0.43;;;;;;;15.80;93.11;99895.72;5014605;28;20042;-65
2022/09/14 03:48:32;;;;;;;1.52;0.55;;;;;;;15.77;92.79;99891.13;5012992;28;20103;-65
2022/09/14 03:51:03;;;;;;;1.10;0.68;;;;;;;15.76;92.80;99884.16;5011855;28;20022;-65
2022/09/14 03:53:28;;;;;;;0.77;0.55;;;;;;;15.69;92.19;99886.97;5007674;28;20388;-65
2022/09/14 03:55:54;;;;;;;0.57;0.50;;;;;;;15.58;92.80;99891.00;5012521;28;20079;-65
2022/09/14 03:58:19;;;;;;;0.82;0.80;;;;;;;15.50;93.08;99887.59;4995231;28;20034;-65
2022/09/14 04:00:45;;;;;;;4.88;0.60;;;;;;;15.42;93.29;99877.22;5012261;28;20121;-65
2022/09/14 04:03:10;;;;;;;1.73;0.68;;;;;;;15.43;93.46;99884.94;5007661;28;20402;-65
2022/09/14 04:05:36;;;;;;;1.77;0.70;;;;;;;15.44;93.36;99875.66;5011956;28;20424;-65
2022/09/14 04:08:02;;;;;;;0.47;0.38;;;;;;;15.38;93.02;99879.97;5001160;28;20109;-65
2022/09/14 04:10:27;;;;;;;2.20;1.20;;;;;;;15.41;92.47;99872.97;5011966;28;20041;-65
2022/09/14 04:12:53;;;;;;;0.75;0.50;;;;;;;15.32;92.92;99870.72;5007468;28;20069;-65
2022/09/14 04:15:20;;;;;;;0.85;0.55;;;;;;;15.31;92.64;99861.06;5010235;28;20357;-65
2022/09/14 04:17:46;;;;;;;0.80;0.80;;;;;;;15.26;92.57;99864.97;5011078;28;20034;-65
2022/09/14 04:20:12;;;;;;;1.05;0.80;;;;;;;15.18;92.92;99866.22;5011497;28;20065;-65
2022/09/14 04:22:37;;;;;;;0.95;0.43;;;;;;;15.15;92.88;99868.97;5003504;28;20034;-65
2022/09/14 04:25:03;;;;;;;0.68;0.60;;;;;;;15.20;92.91;99877.44;5012021;28;20038;-65
2022/09/14 04:27:29;;;;;;;2.33;0.40;;;;;;;15.14;92.89;99873.63;5007434;28;20075;-65
2022/09/14 04:29:55;;;;;;;1.27;0.65;;;;;;;15.13;93.04;99879.47;4992853;28;20042;-65
2022/09/14 04:32:20;;;;;;;0.85;0.50;;;;;;;15.23;92.99;99886.72;5014520;28;20044;-65
2022/09/14 04:34:47;;;;;;;1.10;0.55;;;;;;;15.16;93.78;99890.28;4990682;28;20104;-65
2022/09/14 04:37:13;;;;;;;1.55;0.80;;;;;;;15.23;93.92;99882.03;5007734;28;20112;-65
2022/09/14 04:39:38;;;;;;;1.83;0.75;;;;;;;15.27;94.03;99887.47;5012216;28;20121;-65
2022/09/14 04:42:04;;;;;;;0.82;0.68;;;;;;;15.36;93.82;99893.16;5022787;28;20026;-65
2022/09/14 04:44:29;;;;;;;3.17;0.98;;;;;;;15.44;94.12;99894.66;5011660;28;20617;-65
2022/09/14 04:46:54;;;;;;;2.47;0.77;;;;;;;15.51;93.76;99897.25;5004015;28;20060;-65
2022/09/14 04:49:20;;;;;;;1.20;0.77;;;;;;;15.55;94.05;99903.41;5017646;28;20069;-65
2022/09/14 04:51:46;;;;;;;3.45;0.75;;;;;;;15.68;93.48;99898.25;5009926;28;20044;-65
2022/09/14 04:54:15;;;;;;;1.48;0.75;;;;;;;15.76;93.53;99900.44;4990266;28;20029;-65
2022/09/14 04:56:40;;;;;;;0.98;0.70;;;;;;;15.75;93.86;99906.28;5014161;28;20040;-65
2022/09/14 04:59:06;;;;;;;2.35;0.80;;;;;;;15.78;94.09;99898.09;4992809;28;20034;-65
2022/09/14 05:01:38;;;;;;;1.70;0.60;;;;;;;15.74;95.05;99897.34;5011265;28;20485;-67
2022/09/14 05:04:05;;;;;;;0.77;0.57;;;;;;;15.69;95.39;99881.53;5012453;28;20037;-68
2022/09/14 05:06:33;;;;;;;3.40;0.90;;;;;;;15.73;95.51;99876.84;5009669;28;20057;-68
2022/09/14 05:09:00;;;;;;;2.25;0.70;;;;;;;15.79;95.72;99874.44;4992592;28;20096;-68
2022/09/14 05:11:31;;;;;;;1.08;0.80;;;;;;;15.83;95.61;99875.91;4996419;28;20029;-65
2022/09/14 05:13:58;;;;;;;0.63;0.63;;;;;;;15.95;95.56;99866.44;5010098;28;20040;-65
2022/09/14 05:16:43;;;;;;;2.38;1.00;;;;;;;15.99;95.45;99861.72;5009706;28;20113;-65
2022/09/14 05:19:14;;;;;;;2.10;0.70;;;;;;;16.03;95.00;99860.50;5006911;28;20069;-65
2022/09/14 05:21:39;;;;;;;0.45;0.28;;;;;;;16.11;95.15;99866.56;5015258;28;20045;-65
2022/09/14 05:24:11;;;;;;;1.63;0.82;;;;;;;16.11;94.72;99872.00;5009542;28;20225;-65
2022/09/14 05:26:37;;;;;;;2.80;0.90;;;;;;;16.10;94.30;99868.53;5010379;28;20029;-65
2022/09/14 05:29:02;;;;;;;1.25;0.70;;;;;;;16.11;94.66;99875.50;4992387;28;20117;-65
2022/09/14 05:31:29;;;;;;;6.63;1.08;;;;;;;16.14;94.50;99877.38;5008449;28;20116;-65
2022/09/14 05:33:55;;;;;;;5.13;0.80;;;;;;;16.21;94.24;99869.16;5007810;28;20041;-65
2022/09/14 05:36:21;;;;;;;3.40;0.60;;;;;;;16.20;94.08;99873.03;5011661;28;20456;-65
2022/09/14 05:38:46;;;;;;;2.55;0.98;;;;;;;16.19;94.20;99874.22;5001913;28;20033;-65
2022/09/14 05:41:13;;;;;;;3.83;0.80;;;;;;;16.14;93.86;99871.97;5008511;28;20084;-65
2022/09/14 05:43:39;;;;;;;2.60;0.90;;;;;;;16.15;94.87;99878.94;5005341;28;20044;-65
2022/09/14 05:46:08;;;;;;;3.90;1.02;;;;;;;16.16;94.53;99880.47;5026926;28;20037;-65
2022/09/14 05:48:36;;;;;;;1.00;0.70;;;;;;;16.17;94.41;99873.88;4988389;28;20560;-65
2022/09/14 05:51:10;;;;;;;2.72;0.90;;;;;;;16.21;94.36;99877.31;5010885;28;20042;-65
2022/09/14 05:53:36;;;;;;;5.53;1.00;;;;;;;16.27;94.17;99872.16;4990787;28;20121;-65
2022/09/14 05:56:04;;;;;;;4.15;1.30;;;;;;;16.24;94.00;99876.47;5016763;28;20034;-65
2022/09/14 05:58:30;;;;;;;1.42;0.88;;;;;;;16.31;93.62;99888.41;5011648;28;20041;-65
2022/09/14 06:00:56;;;;;;;2.67;1.33;;;;;;;16.30;93.91;99897.75;5013298;28;20044;-67
2022/09/14 06:03:22;;;;;;;2.28;0.85;;;;;;;16.35;94.02;99900.00;4992842;28;20034;-67
2022/09/14 06:05:47;;;;;;;4.32;1.20;;;;;;;16.40;93.35;99883.22;5014623;28;20549;-68
2022/09/14 06:08:13;;;;;;;1.92;1.15;;;;;;;16.36;93.47;99887.94;5014299;28;20038;-68
2022/09/14 06:10:39;;;;;;;4.43;1.10;;;;;;;16.36;93.10;99882.50;5014035;28;20033;-68
2022/09/14 06:13:05;;;;;;;3.88;1.05;;;;;;;16.41;93.44;99882.81;5028243;28;20028;-68
2022/09/14 06:15:32;;;;;;;1.98;0.80;;;;;;;16.46;93.40;99887.78;5016289;28;20665;-68
2022/09/14 06:17:58;;;;;;;1.20;0.88;;;;;;;16.48;93.75;99887.34;5017192;28;20038;-68
2022/09/14 06:20:23;;;;;;;1.75;0.60;;;;;;;16.53;94.19;99889.66;5012905;28;20034;-68
2022/09/14 06:22:49;;;;;;;3.45;1.25;;;;;;;16.59;93.83;99888.00;5006501;28;20026;-68
2022/09/14 06:25:14;;;;;;;2.88;1.42;;;;;;;16.57;94.18;99885.66;5010448;28;20146;-68
2022/09/14 06:27:40;;;;;;;1.23;0.80;;;;;;;16.67;94.00;99889.41;5025533;28;20506;-68
2022/09/14 06:30:06;;;;;;;2.33;1.13;;;;;;;16.75;93.06;99888.88;5016671;28;20030;-68
2022/09/14 06:32:31;;;;;;;3.10;0.88;;;;;;;16.82;92.34;99893.44;5016227;28;20037;-68
2022/09/14 06:34:57;;;;;;;4.28;1.00;;;;;;;16.84;92.42;99889.09;5003533;28;20052;-65
2022/09/14 06:37:42;;;;;;;3.50;0.70;;;;;;;16.89;92.27;99890.56;5012064;28;20038;-66
2022/09/14 06:40:08;;;;;;;2.90;0.82;;;;;;;16.93;92.17;99880.41;4932496;29;20050;-65
2022/09/14 06:42:33;;;;;;;0.82;0.60;;;;;;;16.97;92.29;99892.75;4933345;29;20039;-65
2022/09/14 06:44:59;;;;;;;1.80;0.90;;;;;;;16.95;92.08;99878.81;4915096;29;20043;-65
2022/09/14 06:47:24;;;;;;;1.35;0.90;;;;;;;17.09;91.68;99889.41;4942771;29;20043;-65
2022/09/14 06:49:51;;;;;;;5.32;1.00;;;;;;;17.11;91.56;99875.41;4933244;29;20087;-65
2022/09/14 06:52:16;;;;;;;0.98;0.80;;;;;;;17.16;91.35;99872.19;4927496;29;20086;-65
2022/09/14 06:54:41;;;;;;;2.92;1.10;;;;;;;17.20;91.99;99872.13;4933965;29;20527;-66
2022/09/14 06:57:07;;;;;;;5.03;0.98;;;;;;;17.25;91.93;99868.94;4932662;29;20595;-65
2022/09/14 06:59:32;;;;;;;4.03;0.63;;;;;;;17.41;91.82;99875.19;4928700;29;20118;-65
2022/09/14 07:01:58;;;;;;;4.40;0.90;;;;;;;17.46;91.00;99880.13;4933684;29;20043;-67
2022/09/14 07:04:24;;;;;;;4.38;0.70;;;;;;;17.50;90.73;99880.88;4931167;29;20138;-66
2022/09/14 07:06:49;;;;;;;3.72;0.85;;;;;;;17.56;90.31;99876.47;4929444;29;20063;-66
2022/09/14 07:09:17;;;;;;;1.52;0.98;;;;;;;17.56;90.92;99887.34;4932798;29;20043;-66
2022/09/14 07:11:43;;;;;;;3.30;0.75;;;;;;;17.67;90.46;99884.41;4931087;29;20048;-66
2022/09/14 07:14:10;;;;;;;1.55;0.80;;;;;;;17.74;89.92;99890.47;4930953;29;20659;-67
2022/09/14 07:16:37;;;;;;;0.45;0.35;;;;;;;17.70;89.46;99878.13;4954414;28;20054;-66
2022/09/14 07:19:06;;;;;;;1.35;0.93;;;;;;;17.77;89.65;99884.19;5015799;28;20466;-66
2022/09/14 07:21:32;;;;;;;1.45;0.70;;;;;;;17.80;89.25;99888.03;5009780;28;20409;-66
2022/09/14 07:23:58;;;;;;;2.30;1.00;;;;;;;17.82;89.24;99886.41;5019184;28;20072;-66
2022/09/14 07:26:38;;;;;;;3.63;0.57;;;;;;;17.92;88.84;99893.56;5015711;28;20065;-66
2022/09/14 07:29:06;;;;;;;2.85;1.13;;;;;;;17.90;88.87;99889.75;5011153;28;20061;-66
2022/09/14 07:31:38;;;;;;;6.13;0.98;;;;;;;17.95;89.12;99892.75;5022602;28;20030;-66
2022/09/14 07:34:04;;;;;;;0.88;0.77;;;;;;;18.08;88.53;99892.09;5010652;28;20034;-66
2022/09/14 07:36:34;;;;;;;1.05;0.60;;;;;;;18.19;88.60;99889.88;5014755;28;20033;-64
2022/09/14 07:39:00;;;;;;;1.60;0.77;;;;;;;18.29;88.11;99897.06;5015726;28;20522;-65
2022/09/14 07:41:27;;;;;;;1.85;1.08;;;;;;;18.36;87.68;99896.88;4996353;28;20121;-65
2022/09/14 07:43:59;;;;;;;4.97;1.10;;;;;;;18.36;87.43;99902.31;5014350;28;20033;-65
2022/09/14 07:46:25;;;;;;;;;;;;;;;18.34;87.13;99902.75;4999977;28;20072;-65
2022/09/14 07:48:58;;;;;;;0.68;0.65;;;;;;;18.34;86.24;99894.56;5012813;28;19960;-65
2022/09/14 07:51:24;;;;;;;1.02;0.70;;;;;;;18.22;86.17;99897.19;5014486;28;20556;-65
2022/09/14 07:53:50;;;;;;;3.08;0.80;;;;;;;18.31;87.03;99900.13;4989654;28;20464;-65
2022/09/14 07:56:16;;;;;;;2.47;0.70;;;;;;;18.68;86.49;99902.34;5004392;28;20047;-65
2022/09/14 07:58:43;;;;;;;1.25;0.80;;;;;;;18.94;86.39;99912.22;5018075;28;20033;-65
2022/09/14 08:01:11;;;;;;;1.67;0.88;;;;;;;19.20;85.42;99905.66;5017371;28;20514;-65
2022/09/14 08:03:39;;;;;;;1.30;0.60;;;;;;;19.31;84.87;99903.41;5021056;28;20132;-65
2022/09/14 08:06:14;;;;;;;0.80;0.60;;;;;;;19.36;83.57;99899.41;5022954;28;20048;-65
2022/09/14 08:08:42;;;;;;;1.25;0.65;;;;;;;19.56;83.60;99900.78;5019375;28;20514;-66
2022/09/14 08:11:10;;;;;;;0.98;0.55;;;;;;;19.56;83.15;99898.06;5013153;28;20041;-66
2022/09/14 08:13:38;;;;;;;4.47;0.90;;;;;;;19.74;82.58;99890.09;5019218;28;20062;-66
2022/09/14 08:16:04;;;;;;;0.85;0.63;;;;;;;20.04;81.46;99882.56;5011838;28;20037;-66
2022/09/14 08:18:31;;;;;;;2.45;0.70;;;;;;;20.09;80.51;99873.84;5007951;28;20779;-66
2022/09/14 08:21:01;;;;;;;0.47;0.35;;;;;;;19.90;80.38;99877.56;5026830;28;20116;-67
2022/09/14 08:23:28;;;;;;;0.32;0.32;;;;;;;20.16;80.16;99881.81;5011046;28;20038;-67
2022/09/14 08:25:53;;;;;;;2.60;0.50;;;;;;;20.43;79.91;99884.88;5018744;28;20044;-66
2022/09/14 08:28:19;;;;;;;1.17;0.40;;;;;;;20.89;79.02;99881.38;5012636;28;20116;-66
2022/09/14 08:30:45;;;;;;;1.83;0.40;;;;;;;21.26;78.15;99885.94;5021118;28;20029;-67
2022/09/14 08:33:11;;;;;;;0.85;0.30;;;;;;;21.30;74.12;99880.34;5005619;28;20426;-67
2022/09/14 08:35:43;;;;;;;2.17;0.88;;;;;;;21.13;72.24;99881.75;4998415;28;20064;-66
2022/09/14 08:38:08;;;;;;;2.58;0.50;;;;;;;20.92;73.91;99876.97;5007216;28;20387;-66
2022/09/14 08:40:34;;;;;;;0.70;0.30;;;;;;;21.11;75.06;99873.97;5002792;28;20037;-66
2022/09/14 08:43:02;;;;;;;1.35;0.30;;;;;;;21.26;74.54;99866.78;5006750;28;20038;-67
2022/09/14 08:45:28;;;;;;;1.48;0.40;;;;;;;21.52;73.20;99870.88;5003575;28;20056;-66
2022/09/14 08:47:56;;;;;;;0.55;0.40;;;;;;;21.52;71.88;99865.41;5001199;28;20041;-66
2022/09/14 08:50:22;;;;;;;1.25;0.25;;;;;;;21.49;72.34;99860.84;4994139;28;20096;-66
2022/09/14 08:52:53;;;;;;;0.38;0.38;;;;;;;21.37;72.40;99866.38;5021975;28;20605;-66
2022/09/14 08:55:33;;;;;;;0.22;0.22;;;;;;;21.29;73.42;99870.59;5001076;28;20041;-66
2022/09/14 08:58:43;;;;;;;4.18;0.22;;;;;;;21.21;74.11;99867.38;5013677;28;20045;-66
2022/09/14 09:01:20;;;;;;;0.73;0.25;;;;;;;21.56;73.79;99863.31;4983967;28;20041;-66
2022/09/14 09:03:55;;;;;;;2.83;0.40;;;;;;;21.77;70.17;99860.97;5003645;28;20049;-66
2022/09/14 09:06:51;;;;;;;0.75;0.55;;;;;;;22.02;67.93;99852.59;5015055;28;20057;-66
2022/09/14 09:09:43;;;;;;;0.30;0.30;;;;;;;22.47;66.48;99860.16;5010897;28;20092;-66
2022/09/14 09:12:13;;;;;;;;;;;;;;;22.66;62.70;99857.03;5009109;28;20045;-66
2022/09/14 09:14:44;;;;;;;3.22;0.50;;;;;;;23.01;62.10;99849.25;5011038;28;20012;-66
2022/09/14 09:17:37;;;;;;;0.43;0.30;;;;;;;23.03;60.87;99855.81;5014873;28;20099;-66
2022/09/14 09:20:15;;;;;;;1.85;0.10;;;;;;;23.15;61.29;99854.88;5012162;28;20041;-66
2022/09/14 09:22:45;;;;;;;0.88;0.55;;;;;;;23.24;60.35;99856.88;5014629;28;20048;-66
2022/09/14 09:25:45;;;;;;;0.90;0.22;;;;;;;23.25;61.34;99852.88;5007846;28;20847;-66
2022/09/14 09:28:12;;;;;;;6.28;0.57;;;;;;;23.39;60.81;99841.28;5008207;28;20091;-66
2022/09/14 09:30:40;;;;;;;0.88;0.40;;;;;;;23.60;60.35;99851.31;5009692;28;20379;-66
2022/09/14 09:35:32;;;;;;;0.47;0.40;;;;;;;24.12;55.68;99839.03;5073665;22;20107;-71
2022/09/14 09:38:24;;;;;;;1.25;0.28;;;;;;;24.20;55.97;99834.72;5016086;28;20406;-71
2022/09/14 09:41:11;;;;;;;0.70;0.28;;;;;;;24.01;56.06;99825.78;5016847;28;20033;-70
2022/09/14 09:43:59;;;;;;;0.40;0.20;;;;;;;23.76;56.22;99837.22;5016655;28;20030;-71
2022/09/14 09:46:26;;;;;;;1.85;0.47;;;;;;;23.61;56.09;99835.56;5005645;28;20049;-70
2022/09/14 09:48:53;;;;;;;0.30;0.20;;;;;;;23.42;56.37;99826.63;5005777;28;20042;-69
2022/09/14 09:51:26;;;;;;;0.40;0.10;;;;;;;23.24;55.27;99823.88;5008359;28;20056;-70
2022/09/14 09:54:15;;;;;;;2.97;0.25;;;;;;;22.93;55.20;99820.56;5002823;28;20267;-72
2022/09/14 09:56:54;;;;;;;0.43;0.22;;;;;;;22.80;56.60;99822.72;4986591;28;20055;-69
2022/09/14 09:59:34;;;;;;;1.30;0.40;;;;;;;22.66;56.76;99801.34;5010704;28;20030;-71
2022/09/14 10:02:18;;;;;;;0.70;0.32;;;;;;;22.54;56.27;99807.72;5007904;28;20030;-72
2022/09/14 10:04:55;;;;;;;1.40;0.30;;;;;;;22.35;57.46;99812.44;5005772;28;20038;-69
2022/09/14 10:07:22;;;;;;;0.28;0.20;;;;;;;22.32;56.90;99811.34;5008738;28;20029;-71
2022/09/14 10:10:04;;;;;;;3.45;0.22;;;;;;;22.16;57.19;99805.38;5008257;28;20029;-72
2022/09/14 10:12:30;;;;;;;1.63;0.60;;;;;;;22.00;57.15;99805.63;5007926;28;20155;-72
2022/09/14 10:15:21;;;;;;;0.35;0.20;;;;;;;22.08;57.25;99813.16;4986975;28;20474;-72
2022/09/14 10:17:53;;;;;;;0.88;0.38;;;;;;;22.06;57.72;99815.56;5006036;28;20137;-72
2022/09/14 10:20:24;;;;;;;0.98;0.25;;;;;;;22.16;57.88;99816.34;5002939;28;20145;-68
2022/09/14 10:22:49;;;;;;;0.20;0.17;;;;;;;22.37;56.88;99815.47;5008128;28;20033;-72
2022/09/14 10:25:15;;;;;;;0.73;0.40;;;;;;;22.42;56.58;99817.63;5010025;28;20374;-72
2022/09/14 10:27:47;;;;;;;1.15;0.40;;;;;;;22.64;56.11;99807.31;5010144;28;20037;-73
2022/09/14 10:30:19;;;;;;;7.78;0.80;;;;;;;22.71;56.15;99814.47;4989080;28;20060;-72
2022/09/14 10:32:59;;;;;;;11.20;2.05;;;;;;;22.75;56.08;99818.59;5014021;28;20034;-71
2022/09/14 10:35:48;;;;;;;2.85;0.40;;;;;;;22.79;56.01;99801.94;5015389;28;20057;-72
2022/09/14 10:38:42;;;;;;;0.50;0.40;;;;;;;22.65;56.49;99799.84;4993571;28;20037;-71
2022/09/14 10:41:27;;;;;;;0.85;0.30;;;;;;;22.63;56.61;99797.53;5012178;28;20659;-72
2022/09/14 10:44:05;;;;;;;2.60;0.63;;;;;;;22.62;56.81;99798.00;5012279;28;20033;-71
2022/09/14 10:47:18;;;;;;;0.20;0.20;;;;;;;22.57;56.30;99802.09;5009136;28;20156;-72
2022/09/14 10:49:58;;;;;;;0.40;0.25;;;;;;;22.52;56.58;99802.69;4980425;28;20080;-71
2022/09/14 10:52:49;;;;;;;0.60;0.20;;;;;;;22.42;55.39;99804.66;5012411;28;20026;-72
2022/09/14 10:55:30;;;;;;;0.63;0.30;;;;;;;22.36;54.75;99805.72;4992983;28;20117;-71
2022/09/14 10:58:01;;;;;;;;;;;;;;;22.17;54.37;99812.38;5010393;28;20032;-71
2022/09/14 11:00:30;;;;;;;0.47;0.32;;;;;;;22.11;54.99;99800.47;5007543;28;19968;-72
2022/09/14 11:02:56;;;;;;;0.30;0.30;;;;;;;22.16;54.86;99802.66;5006646;28;20661;-73
2022/09/14 11:05:26;;;;;;;1.13;0.45;;;;;;;22.13;54.38;99798.03;4993315;28;20038;-71
2022/09/14 11:07:52;;;;;;;1.80;0.35;;;;;;;22.15;53.91;99803.84;5008574;28;20120;-72
2022/09/14 11:10:36;;;;;;;0.80;0.73;;;;;;;22.02;54.35;99797.72;4989741;28;20121;-71
2022/09/14 11:13:23;;;;;;;3.15;0.50;;;;;;;22.07;55.72;99800.63;5012501;28;20088;-72
2022/09/14 11:16:33;;;;;;;3.05;0.50;;;;;;;22.07;55.55;99819.06;5009358;28;20022;-73
2022/09/14 11:19:30;;;;;;;0.35;0.30;;;;;;;22.06;54.98;99820.28;4975037;28;20466;-73
2022/09/14 11:22:11;;;;;;;0.30;0.20;;;;;;;22.04;55.46;99812.53;5011098;28;20045;-72
2022/09/14 11:24:54;;;;;;;0.65;0.30;;;;;;;21.94;54.97;99819.19;5002436;28;20397;-73
2022/09/14 11:27:29;;;;;;;1.17;0.30;;;;;;;21.87;54.68;99810.47;5004948;28;20458;-71
2022/09/14 11:30:22;;;;;;;1.05;0.20;;;;;;;21.86;55.58;99806.97;4996042;28;20041;-71
2022/09/14 11:33:12;;;;;;;0.20;0.20;;;;;;;21.91;55.55;99800.13;4987379;28;20052;-71
2022/09/14 11:35:46;;;;;;;0.32;0.30;;;;;;;21.80;56.20;99802.47;5007378;28;20103;-72
2022/09/14 11:38:27;;;;;;;2.30;0.30;;;;;;;21.85;57.49;99794.50;5006485;28;20606;-72
2022/09/14 11:41:02;;;;;;;2.95;0.30;;;;;;;21.90;56.81;99807.59;5011420;28;20133;-71
2022/09/14 11:43:49;;;;;;;0.60;0.20;;;;;;;22.09;57.21;99809.16;5006324;28;20111;-72
2022/09/14 11:46:20;;;;;;;0.35;0.25;;;;;;;22.29;57.66;99803.28;5000870;28;20049;-70
2022/09/14 11:48:59;;;;;;;3.10;0.43;;;;;;;22.45;56.70;99798.25;5010354;28;20072;-72
2022/09/14 11:52:12;;;;;;;1.15;0.40;;;;;;;22.83;55.70;99800.59;5003825;28;20038;-72
2022/09/14 11:54:39;;;;;;;1.48;0.40;;;;;;;22.98;55.26;99793.25;4959758;28;20495;-73
2022/09/14 11:57:06;;;;;;;0.10;0.10;;;;;;;23.07;54.32;99798.72;4951377;28;20042;-72
2022/09/14 11:59:49;;;;;;;0.10;0.10;;;;;;;23.08;52.96;99789.25;4971592;28;20046;-72
2022/09/14 12:02:21;;;;;;;2.97;0.40;;;;;;;23.00;53.09;99792.78;5001973;28;20030;-69